createdAt,value
2022-08-03T00:00:50.930Z,18.96
2022-08-03T00:01:50.960Z,18.95
2022-08-03T00:02:51.035Z,18.94
2022-08-03T00:03:50.982Z,18.94
2022-08-03T00:04:50.874Z,18.93
2022-08-03T00:06:04.857Z,18.91
2022-08-03T00:06:51.850Z,18.89
2022-08-03T00:07:50.905Z,18.87
2022-08-03T00:08:50.843Z,18.85
2022-08-03T00:09:50.920Z,18.85
2022-08-03T00:10:50.792Z,18.84
2022-08-03T00:11:50.829Z,18.83
2022-08-03T00:12:50.771Z,18.83
2022-08-03T00:13:50.842Z,18.83
2022-08-03T00:14:50.780Z,18.84
2022-08-03T00:15:50.762Z,18.82
2022-08-03T00:16:50.711Z,18.80
2022-08-03T00:17:52.022Z,18.78
2022-08-03T00:18:50.689Z,18.75
2022-08-03T00:19:50.792Z,18.72
2022-08-03T00:20:50.691Z,18.70
2022-08-03T00:21:50.702Z,18.68
2022-08-03T00:22:50.633Z,18.67
2022-08-03T00:23:51.355Z,18.67
2022-08-03T00:24:50.603Z,18.66
2022-08-03T00:25:50.622Z,18.65
2022-08-03T00:26:50.593Z,18.63
2022-08-03T00:27:50.829Z,18.63
2022-08-03T00:28:50.557Z,18.63
2022-08-03T00:29:59.632Z,18.64
2022-08-03T00:30:51.525Z,18.65
2022-08-03T00:31:52.574Z,18.65
2022-08-03T00:32:51.531Z,18.67
2022-08-03T00:33:58.151Z,18.67
2022-08-03T00:34:57.906Z,18.68
2022-08-03T00:35:51.457Z,18.69
2022-08-03T00:36:50.495Z,18.69
2022-08-03T00:37:50.455Z,18.71
2022-08-03T00:38:50.514Z,18.71
2022-08-03T00:39:50.413Z,18.72
2022-08-03T00:40:51.452Z,18.71
2022-08-03T00:41:50.374Z,18.71
2022-08-03T00:42:50.444Z,18.70
2022-08-03T00:43:50.386Z,18.70
2022-08-03T00:44:50.463Z,18.70
2022-08-03T00:45:50.333Z,18.71
2022-08-03T00:46:50.367Z,18.71
2022-08-03T00:47:50.308Z,18.70
2022-08-03T00:48:50.400Z,18.70
2022-08-03T00:49:50.466Z,18.68
2022-08-03T00:50:50.319Z,18.68
2022-08-03T00:51:50.245Z,18.67
2022-08-03T00:52:50.307Z,18.65
2022-08-03T00:53:50.234Z,18.64
2022-08-03T00:54:50.324Z,18.63
2022-08-03T00:55:50.227Z,18.62
2022-08-03T00:56:59.902Z,18.60
2022-08-03T00:57:51.176Z,18.57
2022-08-03T00:58:50.252Z,18.54
2022-08-03T00:59:50.148Z,18.51
2022-08-03T01:00:50.279Z,18.50
2022-08-03T01:01:50.169Z,18.49
2022-08-03T01:02:50.176Z,18.47
2022-08-03T01:03:50.094Z,18.47
2022-08-03T01:04:50.187Z,18.46
2022-08-03T01:05:50.068Z,18.45
2022-08-03T01:06:50.160Z,18.44
2022-08-03T01:07:50.039Z,18.43
2022-08-03T01:08:50.117Z,18.42
2022-08-03T01:09:50.017Z,18.40
2022-08-03T01:10:50.030Z,18.37
2022-08-03T01:12:00.521Z,18.33
2022-08-03T01:12:51.007Z,18.30
2022-08-03T01:14:01.080Z,18.27
2022-08-03T01:14:50.987Z,18.24
2022-08-03T01:15:49.934Z,18.22
2022-08-03T01:16:49.976Z,18.19
2022-08-03T01:17:49.918Z,18.17
2022-08-03T01:18:49.956Z,18.15
2022-08-03T01:19:49.893Z,18.13
2022-08-03T01:20:49.920Z,18.12
2022-08-03T01:21:49.850Z,18.11
2022-08-03T01:22:49.921Z,18.10
2022-08-03T01:23:49.830Z,18.09
2022-08-03T01:24:49.879Z,18.08
2022-08-03T01:25:54.363Z,18.07
2022-08-03T01:26:49.788Z,18.07
2022-08-03T01:27:49.848Z,18.06
2022-08-03T01:28:49.760Z,18.06
2022-08-03T01:29:49.859Z,18.06
2022-08-03T01:30:49.751Z,18.07
2022-08-03T01:32:58.120Z,18.07
2022-08-03T01:32:59.469Z,18.07
2022-08-03T01:33:50.700Z,18.08
2022-08-03T01:34:49.797Z,18.09
2022-08-03T01:35:49.674Z,18.09
2022-08-03T01:36:49.759Z,18.08
2022-08-03T01:37:49.640Z,18.05
2022-08-03T01:38:49.728Z,18.04
2022-08-03T01:39:49.621Z,18.05
2022-08-03T01:40:49.632Z,18.06
2022-08-03T01:41:49.591Z,18.05
2022-08-03T01:42:49.699Z,18.05
2022-08-03T01:44:27.547Z,18.05
2022-08-03T01:44:50.549Z,18.04
2022-08-03T01:45:49.534Z,18.03
2022-08-03T01:46:49.572Z,18.02
2022-08-03T01:47:49.519Z,18.02
2022-08-03T01:48:49.592Z,18.01
2022-08-03T01:49:49.563Z,18.01
2022-08-03T01:50:49.502Z,18.02
2022-08-03T01:52:04.335Z,18.03
2022-08-03T01:52:50.471Z,18.03
2022-08-03T01:53:49.544Z,18.03
2022-08-03T01:54:49.428Z,18.04
2022-08-03T01:55:49.475Z,18.03
2022-08-03T01:56:49.382Z,18.03
2022-08-03T01:58:06.087Z,18.02
2022-08-03T01:58:50.382Z,18.02
2022-08-03T01:59:49.365Z,18.01
2022-08-03T02:00:49.388Z,17.99
2022-08-03T02:02:19.566Z,17.97
2022-08-03T02:02:50.462Z,17.96
2022-08-03T02:04:00.667Z,17.95
2022-08-03T02:04:50.306Z,17.94
2022-08-03T02:05:54.114Z,17.92
2022-08-03T02:07:01.928Z,17.92
2022-08-03T02:07:50.242Z,17.92
2022-08-03T02:08:49.334Z,17.93
2022-08-03T02:09:49.213Z,17.92
2022-08-03T02:10:49.295Z,17.88
2022-08-03T02:11:49.191Z,17.86
2022-08-03T02:12:51.156Z,17.85
2022-08-03T02:13:49.161Z,17.83
2022-08-03T02:14:49.203Z,17.80
2022-08-03T02:15:49.166Z,17.79
2022-08-03T02:16:49.183Z,17.76
2022-08-03T02:17:49.103Z,17.74
2022-08-03T02:18:49.203Z,17.72
2022-08-03T02:19:49.096Z,17.71
2022-08-03T02:20:49.103Z,17.71
2022-08-03T02:21:57.272Z,17.71
2022-08-03T02:22:50.043Z,17.70
2022-08-03T02:23:49.145Z,17.70
2022-08-03T02:24:50.942Z,17.69
2022-08-03T02:25:49.043Z,17.69
2022-08-03T02:26:48.995Z,17.67
2022-08-03T02:27:49.125Z,17.67
2022-08-03T02:28:48.968Z,17.66
2022-08-03T02:29:48.967Z,17.64
2022-08-03T02:30:51.833Z,17.63
2022-08-03T02:31:49.924Z,17.61
2022-08-03T02:32:49.045Z,17.59
2022-08-03T02:33:48.925Z,17.58
2022-08-03T02:34:48.904Z,17.57
2022-08-03T02:35:48.874Z,17.56
2022-08-03T02:36:48.917Z,17.54
2022-08-03T02:37:49.757Z,17.52
2022-08-03T02:38:48.987Z,17.51
2022-08-03T02:39:48.815Z,17.50
2022-08-03T02:40:48.943Z,17.49
2022-08-03T02:41:48.795Z,17.48
2022-08-03T02:42:48.859Z,17.46
2022-08-03T02:44:06.201Z,17.43
2022-08-03T02:44:49.769Z,17.39
2022-08-03T02:45:49.807Z,17.35
2022-08-03T02:46:48.725Z,17.31
2022-08-03T02:47:53.386Z,17.27
2022-08-03T02:48:49.709Z,17.23
2022-08-03T02:49:51.246Z,17.20
2022-08-03T02:50:48.709Z,17.18
2022-08-03T02:51:48.716Z,17.15
2022-08-03T02:52:48.653Z,17.12
2022-08-03T02:53:48.727Z,17.10
2022-08-03T02:54:48.629Z,17.08
2022-08-03T02:55:48.699Z,17.07
2022-08-03T02:56:48.596Z,17.06
2022-08-03T02:57:48.659Z,17.05
2022-08-03T02:58:48.566Z,17.04
2022-08-03T02:59:48.667Z,17.03
2022-08-03T03:00:48.564Z,17.02
2022-08-03T03:01:48.645Z,17.00
2022-08-03T03:02:48.518Z,16.99
2022-08-03T03:03:48.596Z,16.99
2022-08-03T03:04:54.993Z,16.98
2022-08-03T03:05:55.823Z,16.98
2022-08-03T03:06:49.489Z,16.98
2022-08-03T03:07:52.887Z,16.98
2022-08-03T03:08:48.439Z,16.99
2022-08-03T03:09:48.539Z,16.97
2022-08-03T03:10:48.408Z,16.95
2022-08-03T03:11:49.398Z,16.94
2022-08-03T03:12:48.538Z,16.95
2022-08-03T03:13:48.367Z,16.96
2022-08-03T03:14:48.378Z,16.96
2022-08-03T03:15:48.337Z,16.95
2022-08-03T03:16:50.669Z,16.93
2022-08-03T03:17:48.308Z,16.91
2022-08-03T03:18:48.350Z,16.88
2022-08-03T03:19:48.295Z,16.88
2022-08-03T03:20:49.148Z,16.88
2022-08-03T03:21:48.469Z,16.87
2022-08-03T03:22:48.329Z,16.85
2022-08-03T03:23:48.238Z,16.83
2022-08-03T03:24:48.309Z,16.81
2022-08-03T03:25:48.219Z,16.79
2022-08-03T03:26:48.258Z,16.76
2022-08-03T03:27:49.574Z,16.73
2022-08-03T03:28:48.272Z,16.70
2022-08-03T03:29:48.160Z,16.69
2022-08-03T03:30:52.744Z,16.69
2022-08-03T03:31:49.150Z,16.69
2022-08-03T03:32:48.198Z,16.69
2022-08-03T03:33:48.112Z,16.70
2022-08-03T03:34:48.210Z,16.70
2022-08-03T03:35:48.091Z,16.70
2022-08-03T03:36:48.179Z,16.70
2022-08-03T03:37:48.057Z,16.69
2022-08-03T03:38:48.137Z,16.69
2022-08-03T03:39:48.029Z,16.69
2022-08-03T03:40:48.054Z,16.70
2022-08-03T03:41:47.999Z,16.71
2022-08-03T03:42:48.119Z,16.72
2022-08-03T03:43:47.980Z,16.73
2022-08-03T03:44:49.014Z,16.74
2022-08-03T03:45:47.962Z,16.75
2022-08-03T03:46:48.020Z,16.77
2022-08-03T03:47:47.921Z,16.79
2022-08-03T03:48:48.012Z,16.80
2022-08-03T03:49:47.903Z,16.80
2022-08-03T03:50:47.921Z,16.79
2022-08-03T03:51:47.911Z,16.78
2022-08-03T03:52:48.960Z,16.75
2022-08-03T03:53:47.851Z,16.74
2022-08-03T03:54:47.901Z,16.75
2022-08-03T03:55:59.178Z,16.76
2022-08-03T03:56:48.801Z,16.76
2022-08-03T03:57:47.871Z,16.76
2022-08-03T03:58:47.775Z,16.75
2022-08-03T03:59:47.881Z,16.75
2022-08-03T04:00:47.812Z,16.75
2022-08-03T04:01:47.790Z,16.77
2022-08-03T04:02:48.730Z,16.77
2022-08-03T04:03:47.811Z,16.78
2022-08-03T04:04:47.706Z,16.79
2022-08-03T04:05:47.751Z,16.79
2022-08-03T04:06:47.692Z,16.80
2022-08-03T04:07:47.732Z,16.82
2022-08-03T04:08:47.651Z,16.84
2022-08-03T04:09:47.751Z,16.84
2022-08-03T04:10:47.621Z,16.84
2022-08-03T04:11:47.678Z,16.84
2022-08-03T04:12:50.255Z,16.85
2022-08-03T04:13:47.679Z,16.86
2022-08-03T04:14:47.580Z,16.87
2022-08-03T04:15:47.583Z,16.88
2022-08-03T04:16:47.542Z,16.90
2022-08-03T04:17:47.602Z,16.92
2022-08-03T04:18:47.539Z,16.94
2022-08-03T04:19:47.625Z,16.96
2022-08-03T04:20:47.710Z,16.98
2022-08-03T04:21:47.530Z,17.00
2022-08-03T04:22:47.465Z,17.02
2022-08-03T04:23:47.543Z,17.04
2022-08-03T04:24:47.457Z,17.05
2022-08-03T04:25:47.455Z,17.07
2022-08-03T04:26:50.943Z,17.08
2022-08-03T04:28:08.164Z,17.10
2022-08-03T04:28:48.383Z,17.13
2022-08-03T04:29:48.529Z,17.15
2022-08-03T04:30:47.443Z,17.14
2022-08-03T04:31:47.363Z,17.15
2022-08-03T04:32:47.416Z,17.16
2022-08-03T04:33:47.335Z,17.16
2022-08-03T04:34:48.341Z,17.17
2022-08-03T04:36:01.887Z,17.18
2022-08-03T04:36:48.300Z,17.20
2022-08-03T04:37:47.335Z,17.22
2022-08-03T04:38:47.274Z,17.24
2022-08-03T04:39:47.354Z,17.26
2022-08-03T04:40:47.265Z,17.30
2022-08-03T04:42:08.385Z,17.33
2022-08-03T04:42:48.205Z,17.36
2022-08-03T04:43:47.327Z,17.40
2022-08-03T04:44:47.205Z,17.44
2022-08-03T04:45:47.218Z,17.47
2022-08-03T04:46:52.729Z,17.49
2022-08-03T04:47:48.155Z,17.51
2022-08-03T04:48:47.224Z,17.52
2022-08-03T04:49:47.108Z,17.53
2022-08-03T04:50:47.124Z,17.54
2022-08-03T04:51:47.079Z,17.58
2022-08-03T04:52:47.191Z,17.64
2022-08-03T04:53:47.067Z,17.69
2022-08-03T04:54:50.436Z,17.72
2022-08-03T04:55:47.026Z,17.74
2022-08-03T04:56:47.070Z,17.75
2022-08-03T04:57:46.998Z,17.76
2022-08-03T04:58:47.077Z,17.75
2022-08-03T04:59:46.997Z,17.76
2022-08-03T05:00:46.997Z,17.78
2022-08-03T05:01:47.031Z,17.79
2022-08-03T05:02:47.064Z,17.81
2022-08-03T05:03:46.918Z,17.83
2022-08-03T05:04:47.017Z,17.86
2022-08-03T05:05:50.343Z,17.88
2022-08-03T05:06:48.409Z,17.90
2022-08-03T05:07:47.867Z,17.92
2022-08-03T05:08:48.874Z,17.93
2022-08-03T05:09:50.528Z,17.94
2022-08-03T05:10:47.850Z,17.97
2022-08-03T05:11:46.868Z,18.00
2022-08-03T05:12:46.860Z,18.03
2022-08-03T05:13:46.878Z,18.07
2022-08-03T05:14:46.784Z,18.10
2022-08-03T05:15:46.813Z,18.12
2022-08-03T05:16:46.777Z,18.16
2022-08-03T05:17:46.810Z,18.20
2022-08-03T05:18:46.719Z,18.25
2022-08-03T05:19:46.838Z,18.29
2022-08-03T05:20:46.698Z,18.34
2022-08-03T05:21:52.733Z,18.37
2022-08-03T05:22:46.698Z,18.40
2022-08-03T05:23:46.748Z,18.41
2022-08-03T05:24:46.655Z,18.42
2022-08-03T05:25:49.673Z,18.45
2022-08-03T05:26:46.623Z,18.48
2022-08-03T05:27:46.679Z,18.51
2022-08-03T05:28:50.960Z,18.53
2022-08-03T05:29:46.579Z,18.56
2022-08-03T05:30:46.601Z,18.58
2022-08-03T05:31:46.560Z,18.60
2022-08-03T05:32:46.613Z,18.63
2022-08-03T05:33:46.534Z,18.67
2022-08-03T05:34:46.579Z,18.72
2022-08-03T05:36:00.685Z,18.79
2022-08-03T05:36:47.489Z,18.88
2022-08-03T05:37:54.552Z,18.97
2022-08-03T05:38:47.471Z,19.05
2022-08-03T05:39:46.560Z,19.11
2022-08-03T05:40:56.665Z,19.16
2022-08-03T05:41:47.419Z,19.22
2022-08-03T05:42:46.479Z,19.30
2022-08-03T05:43:46.392Z,19.37
2022-08-03T05:44:46.489Z,19.46
2022-08-03T05:45:46.361Z,19.55
2022-08-03T05:46:47.390Z,19.65
2022-08-03T05:47:46.411Z,19.75
2022-08-03T05:48:46.333Z,19.84
2022-08-03T05:49:46.425Z,19.89
2022-08-03T05:50:46.303Z,19.93
2022-08-03T05:51:46.339Z,19.97
2022-08-03T05:52:47.344Z,20.01
2022-08-03T05:53:46.364Z,20.04
2022-08-03T05:54:55.800Z,20.04
2022-08-03T05:55:49.341Z,20.03
2022-08-03T05:56:47.268Z,20.03
2022-08-03T05:57:49.282Z,20.04
2022-08-03T05:58:46.288Z,20.08
2022-08-03T05:59:57.734Z,20.12
2022-08-03T06:00:47.172Z,20.17
2022-08-03T06:01:46.231Z,20.21
2022-08-03T06:02:46.143Z,20.23
2022-08-03T06:03:46.255Z,20.23
2022-08-03T06:04:46.134Z,20.23
2022-08-03T06:05:55.490Z,20.21
2022-08-03T06:06:47.090Z,20.19
2022-08-03T06:07:46.153Z,20.20
2022-08-03T06:08:46.074Z,20.22
2022-08-03T06:10:34.220Z,20.27
2022-08-03T06:10:47.055Z,20.33
2022-08-03T06:11:46.061Z,20.37
2022-08-03T06:12:46.086Z,20.42
2022-08-03T06:13:46.000Z,20.45
2022-08-03T06:14:46.105Z,20.49
2022-08-03T06:15:45.983Z,20.53
2022-08-03T06:16:46.288Z,20.58
2022-08-03T06:17:45.960Z,20.62
2022-08-03T06:18:46.034Z,20.64
2022-08-03T06:19:47.125Z,20.64
2022-08-03T06:20:47.171Z,20.64
2022-08-03T06:21:45.895Z,20.64
2022-08-03T06:22:50.965Z,20.65
2022-08-03T06:23:52.595Z,20.66
2022-08-03T06:24:53.278Z,20.65
2022-08-03T06:25:47.516Z,20.66
2022-08-03T06:26:45.891Z,20.68
2022-08-03T06:27:45.821Z,20.71
2022-08-03T06:28:52.893Z,20.73
2022-08-03T06:29:46.795Z,20.74
2022-08-03T06:30:45.816Z,20.76
2022-08-03T06:31:45.766Z,20.78
2022-08-03T06:32:51.783Z,20.81
2022-08-03T06:34:22.907Z,20.83
2022-08-03T06:34:46.731Z,20.85
2022-08-03T06:35:45.712Z,20.87
2022-08-03T06:36:46.780Z,20.90
2022-08-03T06:37:45.688Z,20.92
2022-08-03T06:38:45.716Z,20.94
2022-08-03T06:39:48.787Z,20.96
2022-08-03T06:40:45.674Z,20.98
2022-08-03T06:41:45.700Z,21.00
2022-08-03T06:42:45.694Z,21.05
2022-08-03T06:44:02.634Z,21.12
2022-08-03T06:44:46.627Z,21.20
2022-08-03T06:45:45.615Z,21.28
2022-08-03T06:46:45.588Z,21.36
2022-08-03T06:47:45.631Z,21.42
2022-08-03T06:48:45.549Z,21.48
2022-08-03T06:50:12.680Z,21.53
2022-08-03T06:50:46.630Z,21.59
2022-08-03T06:52:03.742Z,21.63
2022-08-03T06:52:46.628Z,21.67
2022-08-03T06:53:45.581Z,21.70
2022-08-03T06:54:45.471Z,21.72
2022-08-03T06:55:45.481Z,21.75
2022-08-03T06:56:45.466Z,21.76
2022-08-03T06:57:45.532Z,21.77
2022-08-03T06:58:45.415Z,21.79
2022-08-03T07:00:10.994Z,21.81
2022-08-03T07:00:46.449Z,21.83
2022-08-03T07:01:45.481Z,21.84
2022-08-03T07:02:45.421Z,21.85
2022-08-03T07:03:52.099Z,21.87
2022-08-03T07:04:46.332Z,21.91
2022-08-03T07:05:45.343Z,21.96
2022-08-03T07:06:45.320Z,22.01
2022-08-03T07:07:45.411Z,22.07
2022-08-03T07:08:45.278Z,22.14
2022-08-03T07:09:56.742Z,22.21
2022-08-03T07:10:46.260Z,22.27
2022-08-03T07:11:45.403Z,22.31
2022-08-03T07:12:55.557Z,22.36
2022-08-03T07:13:46.224Z,22.40
2022-08-03T07:14:45.314Z,22.44
2022-08-03T07:15:55.684Z,22.46
2022-08-03T07:16:46.174Z,22.47
2022-08-03T07:17:45.243Z,22.51
2022-08-03T07:18:45.142Z,22.55
2022-08-03T07:19:45.197Z,22.61
2022-08-03T07:20:45.115Z,22.64
2022-08-03T07:21:45.156Z,22.69
2022-08-03T07:22:45.088Z,22.73
2022-08-03T07:23:45.166Z,22.77
2022-08-03T07:24:45.083Z,22.81
2022-08-03T07:25:45.082Z,22.85
2022-08-03T07:26:45.035Z,22.90
2022-08-03T07:27:48.852Z,22.96
2022-08-03T07:28:46.007Z,23.02
2022-08-03T07:29:45.115Z,23.05
2022-08-03T07:30:45.003Z,23.08
2022-08-03T07:31:45.026Z,23.11
2022-08-03T07:32:49.738Z,23.16
2022-08-03T07:33:45.945Z,23.20
2022-08-03T07:34:44.943Z,23.24
2022-08-03T07:35:44.915Z,23.28
2022-08-03T07:36:46.046Z,23.30
2022-08-03T07:37:46.161Z,23.35
2022-08-03T07:38:52.047Z,23.38
2022-08-03T07:39:45.042Z,23.42
2022-08-03T07:40:46.512Z,23.46
2022-08-03T07:41:44.855Z,23.50
2022-08-03T07:42:44.907Z,23.54
2022-08-03T07:43:44.808Z,23.59
2022-08-03T07:44:46.021Z,23.63
2022-08-03T07:45:44.784Z,23.65
2022-08-03T07:46:45.847Z,23.68
2022-08-03T07:47:53.619Z,23.70
2022-08-03T07:48:45.748Z,23.72
2022-08-03T07:49:44.824Z,23.75
2022-08-03T07:50:44.715Z,23.76
2022-08-03T07:51:44.798Z,23.78
2022-08-03T07:52:44.708Z,23.81
2022-08-03T07:53:47.302Z,23.82
2022-08-03T07:54:44.660Z,23.83
2022-08-03T07:55:45.720Z,23.84
2022-08-03T07:56:44.650Z,23.85
2022-08-03T07:57:44.698Z,23.85
2022-08-03T07:58:44.632Z,23.85
2022-08-03T07:59:49.056Z,23.86
2022-08-03T08:00:45.600Z,23.89
2022-08-03T08:01:46.773Z,23.91
2022-08-03T08:02:44.827Z,23.92
2022-08-03T08:03:53.229Z,23.96
2022-08-03T08:04:45.559Z,23.99
2022-08-03T08:05:44.551Z,24.02
2022-08-03T08:06:44.523Z,24.05
2022-08-03T08:07:44.564Z,24.05
2022-08-03T08:08:45.504Z,24.05
2022-08-03T08:09:44.583Z,24.07
2022-08-03T08:10:58.143Z,24.11
2022-08-03T08:11:45.448Z,24.15
2022-08-03T08:12:44.500Z,24.18
2022-08-03T08:13:44.432Z,24.22
2022-08-03T08:14:44.516Z,24.24
2022-08-03T08:15:44.402Z,24.27
2022-08-03T08:16:44.433Z,24.29
2022-08-03T08:17:44.361Z,24.30
2022-08-03T08:18:44.441Z,24.32
2022-08-03T08:19:51.281Z,24.35
2022-08-03T08:20:45.350Z,24.38
2022-08-03T08:21:53.135Z,24.41
2022-08-03T08:22:45.304Z,24.40
2022-08-03T08:23:48.071Z,24.39
2022-08-03T08:24:45.773Z,24.41
2022-08-03T08:25:44.293Z,24.43
2022-08-03T08:26:44.283Z,24.46
2022-08-03T08:28:22.426Z,24.52
2022-08-03T08:28:45.346Z,24.58
2022-08-03T08:29:47.547Z,24.64
2022-08-03T08:30:45.333Z,24.71
2022-08-03T08:31:44.247Z,24.76
2022-08-03T08:32:44.192Z,24.79
2022-08-03T08:34:45.187Z,24.85
2022-08-03T08:35:44.125Z,24.87
2022-08-03T08:36:44.168Z,24.89
2022-08-03T08:37:50.769Z,24.90
2022-08-03T08:38:45.286Z,24.90
2022-08-03T08:39:44.187Z,24.91
2022-08-03T08:40:44.076Z,24.92
2022-08-03T08:41:46.817Z,24.92
2022-08-03T08:42:57.528Z,24.94
2022-08-03T08:43:45.083Z,24.97
2022-08-03T08:44:44.125Z,24.99
2022-08-03T08:45:44.446Z,25.01
2022-08-03T08:46:44.041Z,25.04
2022-08-03T08:47:51.174Z,25.08
2022-08-03T08:48:44.958Z,25.10
2022-08-03T08:49:53.550Z,25.12
2022-08-03T08:50:45.003Z,25.13
2022-08-03T08:51:54.734Z,25.16
2022-08-03T08:52:44.899Z,25.17
2022-08-03T08:53:45.018Z,25.19
2022-08-03T08:54:43.881Z,25.21
2022-08-03T08:55:58.178Z,25.21
2022-08-03T08:56:44.889Z,25.22
2022-08-03T08:57:43.911Z,25.24
2022-08-03T08:58:43.841Z,25.26
2022-08-03T08:59:48.017Z,25.29
2022-08-03T09:00:43.833Z,25.32
2022-08-03T09:01:44.926Z,25.33
2022-08-03T09:02:43.772Z,25.34
2022-08-03T09:03:43.868Z,25.35
2022-08-03T09:04:43.742Z,25.36
2022-08-03T09:05:55.856Z,25.38
2022-08-03T09:06:58.568Z,25.38
2022-08-03T09:07:44.714Z,25.39
2022-08-03T09:08:43.822Z,25.40
2022-08-03T09:10:08.396Z,25.43
2022-08-03T09:10:44.663Z,25.47
2022-08-03T09:11:51.467Z,25.49
2022-08-03T09:12:44.818Z,25.51
2022-08-03T09:13:44.843Z,25.54
2022-08-03T09:15:00.850Z,25.56
2022-08-03T09:16:01.297Z,25.57
2022-08-03T09:16:44.643Z,25.60
2022-08-03T09:17:46.546Z,25.63
2022-08-03T09:18:44.968Z,25.67
2022-08-03T09:19:43.567Z,25.69
2022-08-03T09:20:44.865Z,25.72
2022-08-03T09:21:44.127Z,25.74
2022-08-03T09:22:43.632Z,25.74
2022-08-03T09:23:59.703Z,25.76
2022-08-03T09:24:44.481Z,25.77
2022-08-03T09:25:43.493Z,25.79
2022-08-03T09:26:43.476Z,25.81
2022-08-03T09:27:43.740Z,25.83
2022-08-03T09:29:00.086Z,25.86
2022-08-03T09:29:44.426Z,25.87
2022-08-03T09:30:43.440Z,25.88
2022-08-03T09:31:44.197Z,25.90
2022-08-03T09:32:43.450Z,25.91
2022-08-03T09:33:43.372Z,25.92
2022-08-03T09:34:43.415Z,25.92
2022-08-03T09:35:58.823Z,25.92
2022-08-03T09:36:44.333Z,25.95
2022-08-03T09:38:12.352Z,25.97
2022-08-03T09:38:44.416Z,26.00
2022-08-03T09:39:43.302Z,26.04
2022-08-03T09:40:43.296Z,26.08
2022-08-03T09:41:43.273Z,26.13
2022-08-03T09:42:43.326Z,26.18
2022-08-03T09:43:43.245Z,26.24
2022-08-03T09:44:43.267Z,26.30
2022-08-03T09:45:43.205Z,26.34
2022-08-03T09:46:43.235Z,26.38
2022-08-03T09:47:44.740Z,26.43
2022-08-03T09:48:43.249Z,26.47
2022-08-03T09:49:43.188Z,26.50
2022-08-03T09:50:43.228Z,26.53
2022-08-03T09:52:31.317Z,26.54
2022-08-03T09:52:52.396Z,26.54
2022-08-03T09:53:59.167Z,26.54
2022-08-03T09:54:44.116Z,26.51
2022-08-03T09:56:33.754Z,26.50
2022-08-03T09:56:44.094Z,26.50
2022-08-03T09:57:43.058Z,26.51
2022-08-03T09:58:43.119Z,26.52
2022-08-03T09:59:43.029Z,26.56
2022-08-03T10:00:44.299Z,26.60
2022-08-03T10:01:43.744Z,26.63
2022-08-03T10:02:45.454Z,26.64
2022-08-03T10:04:02.831Z,26.66
2022-08-03T10:04:46.712Z,26.69
2022-08-03T10:05:45.443Z,26.72
2022-08-03T10:06:45.323Z,26.76
2022-08-03T10:07:47.495Z,26.78
2022-08-03T10:08:44.848Z,26.80
2022-08-03T10:09:45.259Z,26.81
2022-08-03T10:10:54.036Z,26.81
2022-08-03T10:11:44.532Z,26.82
2022-08-03T10:13:07.077Z,26.81
2022-08-03T10:13:43.972Z,26.81
2022-08-03T10:14:43.800Z,26.78
2022-08-03T10:16:23.902Z,26.78
2022-08-03T10:16:44.646Z,26.78
2022-08-03T10:17:47.236Z,26.78
2022-08-03T10:18:44.647Z,26.79
2022-08-03T10:19:44.268Z,26.81
2022-08-03T10:20:43.986Z,26.84
2022-08-03T10:21:43.834Z,26.87
2022-08-03T10:22:43.098Z,26.88
2022-08-03T10:23:42.805Z,26.87
2022-08-03T10:24:42.707Z,26.86
2022-08-03T10:25:42.764Z,26.82
2022-08-03T10:26:49.729Z,26.78
2022-08-03T10:27:43.674Z,26.77
2022-08-03T10:28:45.223Z,26.80
2022-08-03T10:29:42.635Z,26.85
2022-08-03T10:30:42.646Z,26.90
2022-08-03T10:31:54.760Z,26.97
2022-08-03T10:32:43.603Z,27.02
2022-08-03T10:33:51.532Z,27.05
2022-08-03T10:34:44.649Z,27.05
2022-08-03T10:35:42.578Z,27.02
2022-08-03T10:36:42.578Z,27.02
2022-08-03T10:37:42.601Z,27.03
2022-08-03T10:38:43.516Z,27.04
2022-08-03T10:39:42.607Z,27.04
2022-08-03T10:40:51.816Z,27.05
2022-08-03T10:41:43.518Z,27.07
2022-08-03T10:42:42.608Z,27.08
2022-08-03T10:43:42.456Z,27.09
2022-08-03T10:44:42.552Z,27.09
2022-08-03T10:45:42.429Z,27.08
2022-08-03T10:46:45.157Z,27.08
2022-08-03T10:47:42.419Z,27.10
2022-08-03T10:48:42.470Z,27.13
2022-08-03T10:49:42.426Z,27.21
2022-08-03T10:50:42.479Z,27.32
2022-08-03T10:51:42.339Z,27.41
2022-08-03T10:52:44.363Z,27.46
2022-08-03T10:53:47.094Z,27.50
2022-08-03T10:54:43.329Z,27.57
2022-08-03T10:55:42.429Z,27.64
2022-08-03T10:56:50.351Z,27.75
2022-08-03T10:57:43.301Z,27.87
2022-08-03T10:58:57.643Z,27.99
2022-08-03T10:59:43.272Z,28.08
2022-08-03T11:00:43.325Z,28.11
2022-08-03T11:01:59.851Z,28.12
2022-08-03T11:02:43.211Z,28.16
2022-08-03T11:03:42.321Z,28.20
2022-08-03T11:04:43.198Z,28.24
2022-08-03T11:05:43.201Z,28.21
2022-08-03T11:06:42.152Z,28.18
2022-08-03T11:07:43.222Z,28.14
2022-08-03T11:08:43.201Z,28.08
2022-08-03T11:09:42.139Z,28.01
2022-08-03T11:10:42.235Z,28.00
2022-08-03T11:11:42.090Z,28.00
2022-08-03T11:12:42.135Z,28.04
2022-08-03T11:13:42.090Z,28.07
2022-08-03T11:14:42.215Z,28.10
2022-08-03T11:15:42.561Z,28.17
2022-08-03T11:16:42.794Z,28.24
2022-08-03T11:17:46.902Z,28.29
2022-08-03T11:18:43.007Z,28.34
2022-08-03T11:19:57.445Z,28.34
2022-08-03T11:20:43.003Z,28.34
2022-08-03T11:21:42.013Z,28.37
2022-08-03T11:22:41.936Z,28.39
2022-08-03T11:24:05.523Z,28.37
2022-08-03T11:24:42.940Z,28.38
2022-08-03T11:25:54.848Z,28.38
2022-08-03T11:26:42.916Z,28.41
2022-08-03T11:27:41.937Z,28.48
2022-08-03T11:28:41.868Z,28.54
2022-08-03T11:29:41.948Z,28.63
2022-08-03T11:30:41.849Z,28.75
2022-08-03T11:31:50.563Z,28.86
2022-08-03T11:32:48.129Z,28.99
2022-08-03T11:33:42.801Z,29.10
2022-08-03T11:34:41.878Z,29.19
2022-08-03T11:35:41.779Z,29.27
2022-08-03T11:36:41.790Z,29.37
2022-08-03T11:37:41.779Z,29.53
2022-08-03T11:38:42.730Z,29.67
2022-08-03T11:39:41.729Z,29.71
2022-08-03T11:40:41.823Z,29.67
2022-08-03T11:41:42.778Z,29.68
2022-08-03T11:42:41.790Z,29.74
2022-08-03T11:43:41.669Z,29.82
2022-08-03T11:44:41.743Z,29.80
2022-08-03T11:45:42.659Z,29.67
2022-08-03T11:46:41.661Z,29.59
2022-08-03T11:47:51.069Z,29.59
2022-08-03T11:48:42.751Z,29.66
2022-08-03T11:49:41.754Z,29.73
2022-08-03T11:50:41.654Z,29.82
2022-08-03T11:53:12.935Z,29.58
2022-08-03T11:53:52.847Z,29.59
2022-08-03T11:54:56.955Z,29.83
2022-08-03T11:55:51.076Z,29.96
2022-08-03T11:56:50.872Z,30.04
2022-08-03T11:59:00.850Z,30.08
2022-08-03T11:59:09.396Z,30.10
2022-08-03T11:59:51.738Z,30.06
2022-08-03T12:00:50.797Z,29.96
2022-08-03T12:01:50.706Z,29.83
2022-08-03T12:02:50.873Z,29.78
2022-08-03T12:03:50.669Z,29.79
2022-08-03T12:04:50.757Z,29.80
2022-08-03T12:05:51.767Z,29.84
2022-08-03T12:08:06.357Z,29.35
2022-08-03T12:09:02.935Z,29.35
2022-08-03T12:10:03.275Z,29.63
2022-08-03T12:11:03.427Z,29.77
2022-08-03T12:12:03.958Z,29.80
2022-08-03T12:13:02.846Z,29.81
2022-08-03T12:14:47.991Z,29.82
2022-08-03T12:15:03.863Z,29.96
2022-08-03T12:16:02.813Z,30.21
2022-08-03T12:17:02.878Z,30.51
2022-08-03T12:18:02.952Z,30.79
2022-08-03T12:19:03.816Z,30.99
2022-08-03T12:20:02.768Z,31.11
2022-08-03T12:21:02.858Z,31.19
2022-08-03T12:22:02.728Z,31.18
2022-08-03T12:23:02.809Z,31.01
2022-08-03T12:24:02.709Z,30.88
2022-08-03T12:25:02.732Z,30.78
2022-08-03T12:26:02.697Z,30.81
2022-08-03T12:27:02.803Z,30.92
2022-08-03T12:28:02.659Z,31.02
2022-08-03T12:29:02.762Z,31.09
2022-08-03T12:30:02.619Z,31.08
2022-08-03T12:31:02.662Z,31.06
2022-08-03T12:32:02.604Z,31.00
2022-08-03T12:33:02.629Z,30.88
2022-08-03T12:34:02.583Z,30.69
2022-08-03T12:35:04.309Z,30.41
2022-08-03T12:36:02.555Z,30.15
2022-08-03T12:37:02.619Z,29.97
2022-08-03T12:38:04.345Z,29.94
2022-08-03T12:39:03.002Z,30.06
2022-08-03T12:40:09.763Z,30.20
2022-08-03T12:41:03.541Z,30.41
2022-08-03T12:42:02.544Z,30.65
2022-08-03T12:43:02.464Z,30.80
2022-08-03T12:44:02.513Z,31.01
2022-08-03T12:45:02.423Z,31.14
2022-08-03T12:46:02.464Z,31.20
2022-08-03T12:47:02.407Z,31.28
2022-08-03T12:48:02.475Z,31.33
2022-08-03T12:49:02.408Z,31.24
2022-08-03T12:50:02.455Z,31.15
2022-08-03T12:51:02.355Z,31.05
2022-08-03T12:52:07.202Z,31.02
2022-08-03T12:53:03.328Z,30.97
2022-08-03T12:54:02.427Z,30.95
2022-08-03T12:55:02.306Z,30.86
2022-08-03T12:56:05.826Z,30.76